METAR AND TAF INFORMATION
METAR FOR LEVX
ADDS - METARS form results

(1941 UTC 24 March 2019)
Data provider http://aviationweather.gov/metar/data/
 
METAR text: LEVX 241930Z 03009KT 350V080 CAVOK 20/05 Q1021 NOSIG
Conditions at: LEVX (VIGO/PEINADOR , ES) observed 1930 UTC 24 March 2019
Temperature: 20.0°C (68°F)
Dewpoint: 5.0°C (41°F) [RH = 37%]
Pressure (altimeter): 30.15 inches Hg (1021.0 mb)
Winds: from the NNE (30 degrees) at 10 MPH (9 knots; 4.6 m/s)
Visibility: 6 or more miles (10+ km)
Ceiling: ceiling and visibility are OK
Clouds: unknown
Weather: no significant weather observed at this time

METAR text: LEVX 241900Z 03006KT 360V060 CAVOK 19/07 Q1021 NOSIG
Conditions at: LEVX (VIGO/PEINADOR , ES) observed 1900 UTC 24 March 2019
Temperature: 19.0°C (66°F)
Dewpoint: 7.0°C (45°F) [RH = 46%]
Pressure (altimeter): 30.15 inches Hg (1021.0 mb)
Winds: from the NNE (30 degrees) at 7 MPH (6 knots; 3.1 m/s)
Visibility: 6 or more miles (10+ km)
Ceiling: ceiling and visibility are OK
Clouds: unknown
Weather: no significant weather observed at this time

Forecast for: LEVX (VIGO/PEINADOR , ES)
Text: TAF LEVX 241700Z 2418/2518 30010KT 9999 FEW035 TX22/2514Z TN09/2507Z
Forecast period: 1800 UTC 24 March 2019 to 1800 UTC 25 March 2019
Forecast type: FROM: standard forecast or significant change
Winds: from the WNW (300 degrees) at 12 MPH (10 knots; 5.1 m/s)
Visibility: 6 or more miles 10+ km)
Ceiling: at least 12,000 feet AGL
Clouds: few clouds at 3500 feet AGL
Weather: no significant weather forecast for this period
Text: BECMG 2418/2420 03008KT
Forecast period: 1800 UTC 24 March 2019 to 1800 UTC 25 March 2019
Forecast type: BECOMING: Conditions expected to become as follows by 2000 UTC 24 March 2019
Winds: from the NNE (30 degrees) at 9 MPH (8 knots; 4.1 m/s)
Visibility: 6 or more miles 10+ km)
Ceiling: at least 12,000 feet AGL
Clouds: few clouds at 3500 feet AGL
Weather: no significant weather forecast for this period

AIRPORT MAP

RUNWAY INFORMATION
Runway 02 Runway length 7874 ft Runway width 148 ft
Runway elevation 855 ft Runway displaced threshold 0 ft Runway heading 11
Runway 20 Runway length 7874 ft Runway width 148 ft
Runway elevation 829 ft Runway displaced threshold 0 ft Runway heading 191

AIRPORT FREQUENCIES
Type APP Name SANTIAGO A Frequency 120.2 MHZ
Type GND Name GND Frequency 121.7 MHZ
Type TWR Name TWR Frequency 118.45 MHZ

AIRPORT NEAR NAVIGATION AIDS
Type VOR-DME Name Vigo Frequency 113600 KHZ
Type NDB Name Vigo Frequency 345 KHZ
Type NDB Name Vigo Frequency 433 KHZ